sensor_id;sensor_type;location;lat;lon;timestamp;P1;durP1;ratioP1;P2;durP2;ratioP2
84577;SDS011;74803;44.756;19.218;2024-03-02T00:01:09;13.05;;;9.85;;
84577;SDS011;74803;44.756;19.218;2024-03-02T00:03:38;16.58;;;10.57;;
84577;SDS011;74803;44.756;19.218;2024-03-02T00:06:04;18.02;;;11.75;;
84577;SDS011;74803;44.756;19.218;2024-03-02T00:08:30;20.40;;;11.55;;
84577;SDS011;74803;44.756;19.218;2024-03-02T00:11:00;21.30;;;12.80;;
84577;SDS011;74803;44.756;19.218;2024-03-02T00:13:28;19.60;;;13.65;;
84577;SDS011;74803;44.756;19.218;2024-03-02T00:15:58;23.67;;;13.82;;
84577;SDS011;74803;44.756;19.218;2024-03-02T00:18:31;29.60;;;13.73;;
84577;SDS011;74803;44.756;19.218;2024-03-02T00:20:58;15.68;;;10.63;;
84577;SDS011;74803;44.756;19.218;2024-03-02T00:25:57;15.05;;;11.80;;
84577;SDS011;74803;44.756;19.218;2024-03-02T00:28:29;19.80;;;10.90;;
84577;SDS011;74803;44.756;19.218;2024-03-02T00:31:03;14.40;;;9.38;;
84577;SDS011;74803;44.756;19.218;2024-03-02T00:33:33;16.27;;;11.13;;
84577;SDS011;74803;44.756;19.218;2024-03-02T00:36:01;17.00;;;11.80;;
84577;SDS011;74803;44.756;19.218;2024-03-02T00:38:28;20.42;;;12.63;;
84577;SDS011;74803;44.756;19.218;2024-03-02T00:40:55;20.42;;;11.55;;
84577;SDS011;74803;44.756;19.218;2024-03-02T00:43:42;17.65;;;10.77;;
84577;SDS011;74803;44.756;19.218;2024-03-02T00:46:10;18.65;;;9.25;;
84577;SDS011;74803;44.756;19.218;2024-03-02T00:48:37;19.85;;;11.07;;
84577;SDS011;74803;44.756;19.218;2024-03-02T00:51:04;15.70;;;10.00;;
84577;SDS011;74803;44.756;19.218;2024-03-02T00:53:31;15.83;;;9.43;;
84577;SDS011;74803;44.756;19.218;2024-03-02T00:56:00;17.58;;;10.50;;
84577;SDS011;74803;44.756;19.218;2024-03-02T00:58:27;15.88;;;12.13;;
84577;SDS011;74803;44.756;19.218;2024-03-02T01:00:52;18.73;;;12.80;;
84577;SDS011;74803;44.756;19.218;2024-03-02T01:03:18;28.60;;;19.17;;
84577;SDS011;74803;44.756;19.218;2024-03-02T01:05:44;36.47;;;22.70;;
84577;SDS011;74803;44.756;19.218;2024-03-02T01:08:10;42.05;;;25.58;;
84577;SDS011;74803;44.756;19.218;2024-03-02T01:10:36;46.85;;;24.48;;
84577;SDS011;74803;44.756;19.218;2024-03-02T01:13:02;58.40;;;30.20;;
84577;SDS011;74803;44.756;19.218;2024-03-02T01:15:28;68.75;;;33.10;;
84577;SDS011;74803;44.756;19.218;2024-03-02T01:17:53;63.97;;;35.55;;
84577;SDS011;74803;44.756;19.218;2024-03-02T01:20:19;58.17;;;29.77;;
84577;SDS011;74803;44.756;19.218;2024-03-02T01:22:45;42.83;;;27.50;;
84577;SDS011;74803;44.756;19.218;2024-03-02T01:25:10;52.80;;;28.73;;
84577;SDS011;74803;44.756;19.218;2024-03-02T01:27:36;71.43;;;31.80;;
84577;SDS011;74803;44.756;19.218;2024-03-02T01:30:01;38.22;;;23.33;;
84577;SDS011;74803;44.756;19.218;2024-03-02T01:32:27;25.52;;;15.50;;
84577;SDS011;74803;44.756;19.218;2024-03-02T01:34:53;27.53;;;18.23;;
84577;SDS011;74803;44.756;19.218;2024-03-02T01:37:18;25.63;;;17.67;;
84577;SDS011;74803;44.756;19.218;2024-03-02T01:39:45;26.85;;;16.75;;
84577;SDS011;74803;44.756;19.218;2024-03-02T01:44:36;36.25;;;17.30;;
84577;SDS011;74803;44.756;19.218;2024-03-02T01:47:01;31.63;;;17.08;;
84577;SDS011;74803;44.756;19.218;2024-03-02T01:49:27;28.70;;;16.40;;
84577;SDS011;74803;44.756;19.218;2024-03-02T01:51:53;33.20;;;20.70;;
84577;SDS011;74803;44.756;19.218;2024-03-02T01:54:18;32.60;;;17.90;;
84577;SDS011;74803;44.756;19.218;2024-03-02T01:56:44;34.63;;;21.20;;
84577;SDS011;74803;44.756;19.218;2024-03-02T01:59:11;38.72;;;22.63;;
84577;SDS011;74803;44.756;19.218;2024-03-02T02:01:39;34.95;;;20.60;;
84577;SDS011;74803;44.756;19.218;2024-03-02T02:04:04;39.03;;;20.48;;
84577;SDS011;74803;44.756;19.218;2024-03-02T02:06:31;31.95;;;20.25;;
84577;SDS011;74803;44.756;19.218;2024-03-02T02:08:57;43.72;;;22.50;;
84577;SDS011;74803;44.756;19.218;2024-03-02T02:11:23;31.57;;;16.73;;
84577;SDS011;74803;44.756;19.218;2024-03-02T02:13:49;38.40;;;22.13;;
84577;SDS011;74803;44.756;19.218;2024-03-02T02:16:15;41.80;;;19.73;;
84577;SDS011;74803;44.756;19.218;2024-03-02T02:18:40;25.58;;;16.95;;
84577;SDS011;74803;44.756;19.218;2024-03-02T02:21:06;30.33;;;17.70;;
84577;SDS011;74803;44.756;19.218;2024-03-02T02:23:31;38.05;;;20.15;;
84577;SDS011;74803;44.756;19.218;2024-03-02T02:25:57;25.33;;;16.67;;
84577;SDS011;74803;44.756;19.218;2024-03-02T02:28:22;35.10;;;18.20;;
84577;SDS011;74803;44.756;19.218;2024-03-02T02:30:48;32.50;;;20.10;;
84577;SDS011;74803;44.756;19.218;2024-03-02T02:33:14;25.13;;;16.40;;
84577;SDS011;74803;44.756;19.218;2024-03-02T02:35:39;23.67;;;16.43;;
84577;SDS011;74803;44.756;19.218;2024-03-02T02:38:05;23.13;;;16.10;;
84577;SDS011;74803;44.756;19.218;2024-03-02T02:40:31;28.20;;;16.85;;
84577;SDS011;74803;44.756;19.218;2024-03-02T02:42:57;23.90;;;15.00;;
84577;SDS011;74803;44.756;19.218;2024-03-02T02:45:24;32.55;;;17.42;;
84577;SDS011;74803;44.756;19.218;2024-03-02T02:47:50;29.35;;;16.13;;
84577;SDS011;74803;44.756;19.218;2024-03-02T02:50:15;30.27;;;18.30;;
84577;SDS011;74803;44.756;19.218;2024-03-02T02:52:41;25.63;;;16.38;;
84577;SDS011;74803;44.756;19.218;2024-03-02T02:55:11;27.80;;;16.88;;
84577;SDS011;74803;44.756;19.218;2024-03-02T02:57:41;28.13;;;15.55;;
84577;SDS011;74803;44.756;19.218;2024-03-02T03:00:08;24.50;;;15.48;;
84577;SDS011;74803;44.756;19.218;2024-03-02T03:02:39;25.23;;;16.85;;
84577;SDS011;74803;44.756;19.218;2024-03-02T03:05:07;21.88;;;16.48;;
84577;SDS011;74803;44.756;19.218;2024-03-02T03:07:33;23.05;;;16.00;;
84577;SDS011;74803;44.756;19.218;2024-03-02T03:12:25;23.42;;;15.52;;
84577;SDS011;74803;44.756;19.218;2024-03-02T03:14:51;22.52;;;14.75;;
84577;SDS011;74803;44.756;19.218;2024-03-02T03:17:17;26.75;;;16.48;;
84577;SDS011;74803;44.756;19.218;2024-03-02T03:19:42;24.52;;;15.43;;
84577;SDS011;74803;44.756;19.218;2024-03-02T03:22:08;27.67;;;15.98;;
84577;SDS011;74803;44.756;19.218;2024-03-02T03:24:34;33.28;;;17.63;;
84577;SDS011;74803;44.756;19.218;2024-03-02T03:26:59;21.43;;;13.77;;
84577;SDS011;74803;44.756;19.218;2024-03-02T03:29:25;25.90;;;16.70;;
84577;SDS011;74803;44.756;19.218;2024-03-02T03:31:50;23.23;;;14.43;;
84577;SDS011;74803;44.756;19.218;2024-03-02T03:34:16;33.08;;;19.90;;
84577;SDS011;74803;44.756;19.218;2024-03-02T03:36:42;47.47;;;29.40;;
84577;SDS011;74803;44.756;19.218;2024-03-02T03:39:08;41.08;;;27.83;;
84577;SDS011;74803;44.756;19.218;2024-03-02T03:41:34;44.57;;;26.97;;
84577;SDS011;74803;44.756;19.218;2024-03-02T03:43:59;38.33;;;25.67;;
84577;SDS011;74803;44.756;19.218;2024-03-02T03:46:25;41.80;;;24.47;;
84577;SDS011;74803;44.756;19.218;2024-03-02T03:48:51;37.97;;;24.65;;
84577;SDS011;74803;44.756;19.218;2024-03-02T03:51:17;32.47;;;22.27;;
84577;SDS011;74803;44.756;19.218;2024-03-02T03:53:42;36.67;;;22.43;;
84577;SDS011;74803;44.756;19.218;2024-03-02T03:56:08;40.97;;;23.53;;
84577;SDS011;74803;44.756;19.218;2024-03-02T03:58:33;36.78;;;23.75;;
84577;SDS011;74803;44.756;19.218;2024-03-02T04:00:59;30.80;;;21.43;;
84577;SDS011;74803;44.756;19.218;2024-03-02T04:03:24;28.33;;;19.37;;
84577;SDS011;74803;44.756;19.218;2024-03-02T04:05:50;38.78;;;18.98;;
84577;SDS011;74803;44.756;19.218;2024-03-02T04:08:16;29.63;;;18.85;;
84577;SDS011;74803;44.756;19.218;2024-03-02T04:10:42;32.77;;;18.10;;
84577;SDS011;74803;44.756;19.218;2024-03-02T04:13:07;30.38;;;17.58;;
84577;SDS011;74803;44.756;19.218;2024-03-02T04:15:33;31.80;;;20.37;;
84577;SDS011;74803;44.756;19.218;2024-03-02T04:17:58;30.13;;;18.15;;
84577;SDS011;74803;44.756;19.218;2024-03-02T04:20:24;33.50;;;22.43;;
84577;SDS011;74803;44.756;19.218;2024-03-02T04:22:50;46.72;;;30.90;;
84577;SDS011;74803;44.756;19.218;2024-03-02T04:25:16;96.43;;;58.50;;
84577;SDS011;74803;44.756;19.218;2024-03-02T04:27:41;100.03;;;60.07;;
84577;SDS011;74803;44.756;19.218;2024-03-02T04:30:07;63.57;;;36.27;;
84577;SDS011;74803;44.756;19.218;2024-03-02T04:32:33;51.60;;;31.48;;
84577;SDS011;74803;44.756;19.218;2024-03-02T04:35:01;83.20;;;28.50;;
84577;SDS011;74803;44.756;19.218;2024-03-02T04:37:26;32.47;;;23.27;;
84577;SDS011;74803;44.756;19.218;2024-03-02T04:39:52;33.50;;;23.53;;
84577;SDS011;74803;44.756;19.218;2024-03-02T04:42:18;52.57;;;31.40;;
84577;SDS011;74803;44.756;19.218;2024-03-02T04:44:43;44.27;;;28.03;;
84577;SDS011;74803;44.756;19.218;2024-03-02T04:47:09;40.90;;;25.80;;
84577;SDS011;74803;44.756;19.218;2024-03-02T04:49:34;36.20;;;24.17;;
84577;SDS011;74803;44.756;19.218;2024-03-02T04:52:00;38.80;;;23.10;;
84577;SDS011;74803;44.756;19.218;2024-03-02T04:54:25;35.83;;;22.30;;
84577;SDS011;74803;44.756;19.218;2024-03-02T04:56:51;47.35;;;31.98;;
84577;SDS011;74803;44.756;19.218;2024-03-02T04:59:18;40.35;;;26.20;;
84577;SDS011;74803;44.756;19.218;2024-03-02T05:01:44;45.45;;;26.08;;
84577;SDS011;74803;44.756;19.218;2024-03-02T05:04:10;36.83;;;27.05;;
84577;SDS011;74803;44.756;19.218;2024-03-02T05:06:39;43.35;;;30.92;;
84577;SDS011;74803;44.756;19.218;2024-03-02T05:09:09;43.38;;;32.53;;
84577;SDS011;74803;44.756;19.218;2024-03-02T05:11:35;49.92;;;29.63;;
84577;SDS011;74803;44.756;19.218;2024-03-02T05:14:03;44.13;;;28.83;;
84577;SDS011;74803;44.756;19.218;2024-03-02T05:16:33;34.42;;;23.75;;
84577;SDS011;74803;44.756;19.218;2024-03-02T05:18:59;39.65;;;27.50;;
84577;SDS011;74803;44.756;19.218;2024-03-02T05:21:25;53.50;;;33.78;;
84577;SDS011;74803;44.756;19.218;2024-03-02T05:23:51;47.92;;;26.70;;
84577;SDS011;74803;44.756;19.218;2024-03-02T05:26:17;33.75;;;25.02;;
84577;SDS011;74803;44.756;19.218;2024-03-02T05:28:42;47.30;;;31.17;;
84577;SDS011;74803;44.756;19.218;2024-03-02T05:31:11;106.25;;;69.47;;
84577;SDS011;74803;44.756;19.218;2024-03-02T05:33:40;96.32;;;59.47;;
84577;SDS011;74803;44.756;19.218;2024-03-02T05:36:06;83.47;;;51.80;;
84577;SDS011;74803;44.756;19.218;2024-03-02T05:38:32;60.75;;;40.92;;
84577;SDS011;74803;44.756;19.218;2024-03-02T05:40:59;63.10;;;39.00;;
84577;SDS011;74803;44.756;19.218;2024-03-02T05:43:25;63.47;;;38.53;;
84577;SDS011;74803;44.756;19.218;2024-03-02T05:45:51;53.70;;;35.53;;
84577;SDS011;74803;44.756;19.218;2024-03-02T05:48:16;56.80;;;41.35;;
84577;SDS011;74803;44.756;19.218;2024-03-02T05:50:42;71.23;;;41.53;;
84577;SDS011;74803;44.756;19.218;2024-03-02T05:53:07;50.50;;;33.08;;
84577;SDS011;74803;44.756;19.218;2024-03-02T05:55:33;54.87;;;35.43;;
84577;SDS011;74803;44.756;19.218;2024-03-02T05:58:00;42.07;;;32.73;;
84577;SDS011;74803;44.756;19.218;2024-03-02T06:00:32;46.90;;;30.63;;
84577;SDS011;74803;44.756;19.218;2024-03-02T06:02:58;45.53;;;30.40;;
84577;SDS011;74803;44.756;19.218;2024-03-02T06:05:24;54.40;;;37.65;;
84577;SDS011;74803;44.756;19.218;2024-03-02T06:07:50;68.60;;;48.65;;
84577;SDS011;74803;44.756;19.218;2024-03-02T06:10:16;76.43;;;50.22;;
84577;SDS011;74803;44.756;19.218;2024-03-02T06:12:42;57.95;;;39.97;;
84577;SDS011;74803;44.756;19.218;2024-03-02T06:15:08;46.28;;;33.22;;
84577;SDS011;74803;44.756;19.218;2024-03-02T06:17:35;54.60;;;37.60;;
84577;SDS011;74803;44.756;19.218;2024-03-02T06:20:01;62.45;;;36.75;;
84577;SDS011;74803;44.756;19.218;2024-03-02T06:22:26;60.70;;;42.85;;
84577;SDS011;74803;44.756;19.218;2024-03-02T06:24:52;71.63;;;46.93;;
84577;SDS011;74803;44.756;19.218;2024-03-02T06:27:18;74.07;;;55.10;;
84577;SDS011;74803;44.756;19.218;2024-03-02T06:29:43;64.47;;;44.33;;
84577;SDS011;74803;44.756;19.218;2024-03-02T06:32:09;54.27;;;35.27;;
84577;SDS011;74803;44.756;19.218;2024-03-02T06:34:34;64.77;;;36.50;;
84577;SDS011;74803;44.756;19.218;2024-03-02T06:37:00;50.67;;;31.13;;
84577;SDS011;74803;44.756;19.218;2024-03-02T06:39:25;91.03;;;57.53;;
84577;SDS011;74803;44.756;19.218;2024-03-02T06:41:51;98.23;;;55.40;;
84577;SDS011;74803;44.756;19.218;2024-03-02T06:44:17;87.30;;;52.78;;
84577;SDS011;74803;44.756;19.218;2024-03-02T06:46:43;98.03;;;51.07;;
84577;SDS011;74803;44.756;19.218;2024-03-02T06:49:08;75.35;;;42.65;;
84577;SDS011;74803;44.756;19.218;2024-03-02T06:51:35;83.05;;;48.35;;
84577;SDS011;74803;44.756;19.218;2024-03-02T06:54:01;70.40;;;44.45;;
84577;SDS011;74803;44.756;19.218;2024-03-02T06:56:27;76.45;;;49.85;;
84577;SDS011;74803;44.756;19.218;2024-03-02T06:58:53;61.72;;;43.40;;
84577;SDS011;74803;44.756;19.218;2024-03-02T07:01:18;64.63;;;43.33;;
84577;SDS011;74803;44.756;19.218;2024-03-02T07:03:45;63.10;;;39.40;;
84577;SDS011;74803;44.756;19.218;2024-03-02T07:06:11;61.35;;;43.53;;
84577;SDS011;74803;44.756;19.218;2024-03-02T07:08:37;61.70;;;42.13;;
84577;SDS011;74803;44.756;19.218;2024-03-02T07:11:02;108.50;;;56.63;;
84577;SDS011;74803;44.756;19.218;2024-03-02T07:13:28;69.55;;;40.95;;
84577;SDS011;74803;44.756;19.218;2024-03-02T07:15:53;62.87;;;37.70;;
84577;SDS011;74803;44.756;19.218;2024-03-02T07:18:25;66.97;;;38.75;;
84577;SDS011;74803;44.756;19.218;2024-03-02T07:20:50;83.90;;;44.33;;
84577;SDS011;74803;44.756;19.218;2024-03-02T07:23:16;87.60;;;37.60;;
84577;SDS011;74803;44.756;19.218;2024-03-02T07:25:41;69.07;;;39.17;;
84577;SDS011;74803;44.756;19.218;2024-03-02T07:28:07;60.80;;;35.93;;
84577;SDS011;74803;44.756;19.218;2024-03-02T07:30:33;71.68;;;41.22;;
84577;SDS011;74803;44.756;19.218;2024-03-02T07:32:59;49.58;;;32.83;;
84577;SDS011;74803;44.756;19.218;2024-03-02T07:35:25;43.08;;;29.42;;
84577;SDS011;74803;44.756;19.218;2024-03-02T07:37:56;43.10;;;29.23;;
84577;SDS011;74803;44.756;19.218;2024-03-02T07:40:22;43.08;;;29.10;;
84577;SDS011;74803;44.756;19.218;2024-03-02T07:42:48;58.15;;;36.03;;
84577;SDS011;74803;44.756;19.218;2024-03-02T07:45:14;47.75;;;32.60;;
84577;SDS011;74803;44.756;19.218;2024-03-02T07:47:40;43.50;;;30.95;;
84577;SDS011;74803;44.756;19.218;2024-03-02T07:50:06;37.03;;;24.15;;
84577;SDS011;74803;44.756;19.218;2024-03-02T07:52:32;34.75;;;25.35;;
84577;SDS011;74803;44.756;19.218;2024-03-02T07:54:58;38.55;;;25.83;;
84577;SDS011;74803;44.756;19.218;2024-03-02T07:57:24;33.10;;;21.83;;
84577;SDS011;74803;44.756;19.218;2024-03-02T07:59:50;33.63;;;24.38;;
84577;SDS011;74803;44.756;19.218;2024-03-02T08:02:16;36.05;;;26.13;;
84577;SDS011;74803;44.756;19.218;2024-03-02T08:04:42;33.10;;;21.40;;
84577;SDS011;74803;44.756;19.218;2024-03-02T08:07:07;34.45;;;24.30;;
84577;SDS011;74803;44.756;19.218;2024-03-02T08:09:34;35.70;;;22.75;;
84577;SDS011;74803;44.756;19.218;2024-03-02T08:12:00;35.30;;;26.23;;
84577;SDS011;74803;44.756;19.218;2024-03-02T08:14:25;37.20;;;19.93;;
84577;SDS011;74803;44.756;19.218;2024-03-02T08:16:51;28.75;;;19.38;;
84577;SDS011;74803;44.756;19.218;2024-03-02T08:19:17;26.90;;;20.33;;
84577;SDS011;74803;44.756;19.218;2024-03-02T08:21:43;30.90;;;19.00;;
84577;SDS011;74803;44.756;19.218;2024-03-02T08:24:09;31.30;;;20.95;;
84577;SDS011;74803;44.756;19.218;2024-03-02T08:26:35;26.35;;;20.90;;
84577;SDS011;74803;44.756;19.218;2024-03-02T08:29:00;43.65;;;21.65;;
84577;SDS011;74803;44.756;19.218;2024-03-02T08:31:28;35.28;;;22.13;;
84577;SDS011;74803;44.756;19.218;2024-03-02T08:33:54;35.58;;;22.02;;
84577;SDS011;74803;44.756;19.218;2024-03-02T08:36:22;29.48;;;20.45;;
84577;SDS011;74803;44.756;19.218;2024-03-02T08:41:14;28.45;;;19.98;;
84577;SDS011;74803;44.756;19.218;2024-03-02T08:46:07;29.17;;;19.40;;
84577;SDS011;74803;44.756;19.218;2024-03-02T08:48:33;36.80;;;21.35;;
84577;SDS011;74803;44.756;19.218;2024-03-02T08:50:59;37.78;;;21.95;;
84577;SDS011;74803;44.756;19.218;2024-03-02T08:53:25;30.85;;;20.52;;
84577;SDS011;74803;44.756;19.218;2024-03-02T08:55:50;33.00;;;20.88;;
84577;SDS011;74803;44.756;19.218;2024-03-02T08:58:16;28.77;;;19.92;;
84577;SDS011;74803;44.756;19.218;2024-03-02T09:00:41;30.63;;;21.13;;
84577;SDS011;74803;44.756;19.218;2024-03-02T09:03:07;31.77;;;22.27;;
84577;SDS011;74803;44.756;19.218;2024-03-02T09:05:35;33.22;;;23.55;;
84577;SDS011;74803;44.756;19.218;2024-03-02T09:08:01;30.73;;;23.52;;
84577;SDS011;74803;44.756;19.218;2024-03-02T09:10:28;30.73;;;19.75;;
84577;SDS011;74803;44.756;19.218;2024-03-02T09:12:54;33.63;;;21.90;;
84577;SDS011;74803;44.756;19.218;2024-03-02T09:15:19;27.95;;;20.45;;
84577;SDS011;74803;44.756;19.218;2024-03-02T09:17:45;28.52;;;17.50;;
84577;SDS011;74803;44.756;19.218;2024-03-02T09:20:11;26.45;;;18.25;;
84577;SDS011;74803;44.756;19.218;2024-03-02T09:22:37;23.15;;;16.33;;
84577;SDS011;74803;44.756;19.218;2024-03-02T09:25:02;24.00;;;17.60;;
84577;SDS011;74803;44.756;19.218;2024-03-02T09:27:28;37.88;;;20.52;;
84577;SDS011;74803;44.756;19.218;2024-03-02T09:29:54;24.40;;;17.60;;
84577;SDS011;74803;44.756;19.218;2024-03-02T09:32:19;21.40;;;18.13;;
84577;SDS011;74803;44.756;19.218;2024-03-02T09:34:45;29.77;;;20.73;;
84577;SDS011;74803;44.756;19.218;2024-03-02T09:37:10;21.65;;;18.50;;
84577;SDS011;74803;44.756;19.218;2024-03-02T09:39:36;22.75;;;17.67;;
84577;SDS011;74803;44.756;19.218;2024-03-02T09:42:01;24.60;;;19.27;;
84577;SDS011;74803;44.756;19.218;2024-03-02T09:44:29;23.20;;;18.80;;
84577;SDS011;74803;44.756;19.218;2024-03-02T09:46:55;20.95;;;17.25;;
84577;SDS011;74803;44.756;19.218;2024-03-02T09:49:21;20.70;;;15.13;;
84577;SDS011;74803;44.756;19.218;2024-03-02T09:51:47;26.00;;;16.63;;
84577;SDS011;74803;44.756;19.218;2024-03-02T09:54:15;18.33;;;16.23;;
84577;SDS011;74803;44.756;19.218;2024-03-02T09:56:43;19.25;;;15.18;;
84577;SDS011;74803;44.756;19.218;2024-03-02T09:59:09;21.58;;;14.43;;
84577;SDS011;74803;44.756;19.218;2024-03-02T10:01:35;22.25;;;16.73;;
84577;SDS011;74803;44.756;19.218;2024-03-02T10:04:01;17.98;;;13.90;;
84577;SDS011;74803;44.756;19.218;2024-03-02T10:06:29;18.65;;;13.48;;
84577;SDS011;74803;44.756;19.218;2024-03-02T10:08:55;18.58;;;14.82;;
84577;SDS011;74803;44.756;19.218;2024-03-02T10:16:50;17.15;;;12.13;;
84577;SDS011;74803;44.756;19.218;2024-03-02T10:21:55;17.42;;;15.55;;
84577;SDS011;74803;44.756;19.218;2024-03-02T10:24:23;13.32;;;11.38;;
84577;SDS011;74803;44.756;19.218;2024-03-02T10:26:50;17.58;;;13.07;;
84577;SDS011;74803;44.756;19.218;2024-03-02T10:29:16;19.63;;;12.82;;
84577;SDS011;74803;44.756;19.218;2024-03-02T10:34:12;15.50;;;11.45;;
84577;SDS011;74803;44.756;19.218;2024-03-02T10:36:42;21.17;;;13.65;;
84577;SDS011;74803;44.756;19.218;2024-03-02T10:39:08;14.73;;;11.80;;
84577;SDS011;74803;44.756;19.218;2024-03-02T10:44:05;13.82;;;11.40;;
84577;SDS011;74803;44.756;19.218;2024-03-02T10:46:34;15.02;;;11.35;;
84577;SDS011;74803;44.756;19.218;2024-03-02T10:49:05;11.88;;;10.63;;
84577;SDS011;74803;44.756;19.218;2024-03-02T10:51:32;13.80;;;10.90;;
84577;SDS011;74803;44.756;19.218;2024-03-02T10:53:59;14.20;;;11.30;;
84577;SDS011;74803;44.756;19.218;2024-03-02T10:59:01;14.23;;;9.73;;
84577;SDS011;74803;44.756;19.218;2024-03-02T11:01:48;13.98;;;9.15;;
84577;SDS011;74803;44.756;19.218;2024-03-02T11:04:16;16.02;;;9.73;;
84577;SDS011;74803;44.756;19.218;2024-03-02T11:06:45;12.93;;;9.90;;
84577;SDS011;74803;44.756;19.218;2024-03-02T11:09:14;12.80;;;9.82;;
84577;SDS011;74803;44.756;19.218;2024-03-02T11:11:42;11.85;;;9.35;;
84577;SDS011;74803;44.756;19.218;2024-03-02T11:14:11;8.98;;;7.72;;
84577;SDS011;74803;44.756;19.218;2024-03-02T11:16:39;15.75;;;10.25;;
84577;SDS011;74803;44.756;19.218;2024-03-02T11:19:08;12.18;;;10.23;;
84577;SDS011;74803;44.756;19.218;2024-03-02T11:21:39;12.73;;;8.68;;
84577;SDS011;74803;44.756;19.218;2024-03-02T11:26:51;13.20;;;8.75;;
84577;SDS011;74803;44.756;19.218;2024-03-02T11:32:05;12.18;;;7.13;;
84577;SDS011;74803;44.756;19.218;2024-03-02T11:34:57;15.20;;;8.25;;
84577;SDS011;74803;44.756;19.218;2024-03-02T11:42:16;9.35;;;7.70;;
84577;SDS011;74803;44.756;19.218;2024-03-02T11:44:43;11.60;;;7.60;;
84577;SDS011;74803;44.756;19.218;2024-03-02T11:47:12;12.10;;;8.20;;
84577;SDS011;74803;44.756;19.218;2024-03-02T11:49:50;9.55;;;8.00;;
84577;SDS011;74803;44.756;19.218;2024-03-02T11:52:17;12.40;;;7.95;;
84577;SDS011;74803;44.756;19.218;2024-03-02T11:54:44;11.48;;;9.27;;
84577;SDS011;74803;44.756;19.218;2024-03-02T11:57:15;9.68;;;7.18;;
84577;SDS011;74803;44.756;19.218;2024-03-02T11:59:42;12.75;;;9.50;;
84577;SDS011;74803;44.756;19.218;2024-03-02T12:02:15;14.75;;;8.25;;
84577;SDS011;74803;44.756;19.218;2024-03-02T12:04:43;13.35;;;8.48;;
84577;SDS011;74803;44.756;19.218;2024-03-02T12:07:10;10.98;;;7.20;;
84577;SDS011;74803;44.756;19.218;2024-03-02T12:09:36;12.98;;;7.68;;
84577;SDS011;74803;44.756;19.218;2024-03-02T12:14:32;10.13;;;6.95;;
84577;SDS011;74803;44.756;19.218;2024-03-02T12:16:58;14.48;;;8.15;;
84577;SDS011;74803;44.756;19.218;2024-03-02T12:19:28;12.10;;;7.85;;
84577;SDS011;74803;44.756;19.218;2024-03-02T12:21:56;11.13;;;6.82;;
84577;SDS011;74803;44.756;19.218;2024-03-02T12:24:22;12.52;;;7.45;;
84577;SDS011;74803;44.756;19.218;2024-03-02T12:26:51;11.10;;;7.00;;
84577;SDS011;74803;44.756;19.218;2024-03-02T12:29:19;10.68;;;6.93;;
84577;SDS011;74803;44.756;19.218;2024-03-02T12:31:50;11.27;;;6.55;;
84577;SDS011;74803;44.756;19.218;2024-03-02T12:34:30;12.07;;;8.05;;
84577;SDS011;74803;44.756;19.218;2024-03-02T12:39:22;12.82;;;8.40;;
84577;SDS011;74803;44.756;19.218;2024-03-02T12:41:49;12.63;;;8.02;;
84577;SDS011;74803;44.756;19.218;2024-03-02T12:44:16;9.20;;;6.93;;
84577;SDS011;74803;44.756;19.218;2024-03-02T12:46:43;12.55;;;7.00;;
84577;SDS011;74803;44.756;19.218;2024-03-02T12:49:11;12.85;;;7.72;;
84577;SDS011;74803;44.756;19.218;2024-03-02T12:51:38;15.82;;;9.02;;
84577;SDS011;74803;44.756;19.218;2024-03-02T12:54:08;11.35;;;10.15;;
84577;SDS011;74803;44.756;19.218;2024-03-02T12:56:37;9.23;;;6.35;;
84577;SDS011;74803;44.756;19.218;2024-03-02T12:59:04;11.32;;;7.55;;
84577;SDS011;74803;44.756;19.218;2024-03-02T13:01:30;9.30;;;7.72;;
84577;SDS011;74803;44.756;19.218;2024-03-02T13:04:00;8.13;;;6.45;;
84577;SDS011;74803;44.756;19.218;2024-03-02T13:06:33;7.75;;;6.25;;
84577;SDS011;74803;44.756;19.218;2024-03-02T13:09:00;9.13;;;6.72;;
84577;SDS011;74803;44.756;19.218;2024-03-02T13:11:26;15.82;;;7.35;;
84577;SDS011;74803;44.756;19.218;2024-03-02T13:13:52;15.60;;;7.00;;
84577;SDS011;74803;44.756;19.218;2024-03-02T13:16:18;11.68;;;8.45;;
84577;SDS011;74803;44.756;19.218;2024-03-02T13:18:45;12.68;;;7.90;;
84577;SDS011;74803;44.756;19.218;2024-03-02T13:21:10;9.65;;;6.35;;
84577;SDS011;74803;44.756;19.218;2024-03-02T13:23:36;16.70;;;8.73;;
84577;SDS011;74803;44.756;19.218;2024-03-02T13:26:02;9.90;;;7.28;;
84577;SDS011;74803;44.756;19.218;2024-03-02T13:28:29;8.73;;;7.70;;
84577;SDS011;74803;44.756;19.218;2024-03-02T13:30:54;9.43;;;7.90;;
84577;SDS011;74803;44.756;19.218;2024-03-02T13:33:21;15.23;;;10.35;;
84577;SDS011;74803;44.756;19.218;2024-03-02T13:35:50;46.28;;;29.00;;
84577;SDS011;74803;44.756;19.218;2024-03-02T13:38:18;21.48;;;14.98;;
84577;SDS011;74803;44.756;19.218;2024-03-02T13:40:44;15.40;;;10.85;;
84577;SDS011;74803;44.756;19.218;2024-03-02T13:43:10;10.68;;;8.68;;
84577;SDS011;74803;44.756;19.218;2024-03-02T13:45:38;11.57;;;8.13;;
84577;SDS011;74803;44.756;19.218;2024-03-02T13:48:04;7.45;;;6.05;;
84577;SDS011;74803;44.756;19.218;2024-03-02T13:50:30;8.43;;;6.63;;
84577;SDS011;74803;44.756;19.218;2024-03-02T13:52:56;12.07;;;7.03;;
84577;SDS011;74803;44.756;19.218;2024-03-02T13:55:22;7.95;;;6.32;;
84577;SDS011;74803;44.756;19.218;2024-03-02T13:57:47;18.15;;;11.50;;
84577;SDS011;74803;44.756;19.218;2024-03-02T14:00:18;11.85;;;8.27;;
84577;SDS011;74803;44.756;19.218;2024-03-02T14:02:45;44.78;;;29.50;;
84577;SDS011;74803;44.756;19.218;2024-03-02T14:05:11;28.98;;;14.52;;
84577;SDS011;74803;44.756;19.218;2024-03-02T14:07:37;19.15;;;11.88;;
84577;SDS011;74803;44.756;19.218;2024-03-02T14:10:04;34.25;;;21.83;;
84577;SDS011;74803;44.756;19.218;2024-03-02T14:12:29;12.68;;;8.02;;
84577;SDS011;74803;44.756;19.218;2024-03-02T14:14:59;17.95;;;10.35;;
84577;SDS011;74803;44.756;19.218;2024-03-02T14:17:27;10.30;;;7.07;;
84577;SDS011;74803;44.756;19.218;2024-03-02T14:19:53;14.32;;;6.13;;
84577;SDS011;74803;44.756;19.218;2024-03-02T14:22:19;10.02;;;6.30;;
84577;SDS011;74803;44.756;19.218;2024-03-02T14:24:45;13.50;;;6.57;;
84577;SDS011;74803;44.756;19.218;2024-03-02T14:27:14;8.25;;;5.43;;
84577;SDS011;74803;44.756;19.218;2024-03-02T14:29:44;31.50;;;19.65;;
84577;SDS011;74803;44.756;19.218;2024-03-02T14:32:09;23.23;;;12.85;;
84577;SDS011;74803;44.756;19.218;2024-03-02T14:34:35;13.00;;;9.80;;
84577;SDS011;74803;44.756;19.218;2024-03-02T14:37:01;23.17;;;13.30;;
84577;SDS011;74803;44.756;19.218;2024-03-02T14:39:28;53.45;;;30.02;;
84577;SDS011;74803;44.756;19.218;2024-03-02T14:41:54;20.92;;;13.98;;
84577;SDS011;74803;44.756;19.218;2024-03-02T14:44:20;19.80;;;13.05;;
84577;SDS011;74803;44.756;19.218;2024-03-02T14:46:48;21.25;;;12.10;;
84577;SDS011;74803;44.756;19.218;2024-03-02T14:49:15;16.90;;;10.43;;
84577;SDS011;74803;44.756;19.218;2024-03-02T14:51:41;25.48;;;16.83;;